sensor_id;sensor_type;location;lat;lon;timestamp;temperature;humidity
23729;DHT22;12045;60.214;24.724;2023-05-14T00:01:58;13.50;85.00
23729;DHT22;12045;60.214;24.724;2023-05-14T00:04:25;13.50;85.30
23729;DHT22;12045;60.214;24.724;2023-05-14T00:06:53;13.50;85.60
23729;DHT22;12045;60.214;24.724;2023-05-14T00:09:20;13.50;85.90
23729;DHT22;12045;60.214;24.724;2023-05-14T00:11:48;13.40;86.10
23729;DHT22;12045;60.214;24.724;2023-05-14T00:14:15;13.40;86.50
23729;DHT22;12045;60.214;24.724;2023-05-14T00:16:43;13.40;86.80
23729;DHT22;12045;60.214;24.724;2023-05-14T00:19:10;13.40;87.20
23729;DHT22;12045;60.214;24.724;2023-05-14T00:21:38;13.50;87.10
23729;DHT22;12045;60.214;24.724;2023-05-14T00:24:05;13.50;87.00
23729;DHT22;12045;60.214;24.724;2023-05-14T00:26:33;13.50;86.70
23729;DHT22;12045;60.214;24.724;2023-05-14T00:29:00;13.50;86.70
23729;DHT22;12045;60.214;24.724;2023-05-14T00:31:28;13.50;86.80
23729;DHT22;12045;60.214;24.724;2023-05-14T00:33:55;13.50;87.00
23729;DHT22;12045;60.214;24.724;2023-05-14T00:36:23;13.40;87.30
23729;DHT22;12045;60.214;24.724;2023-05-14T00:38:50;13.40;87.50
23729;DHT22;12045;60.214;24.724;2023-05-14T00:41:17;13.40;87.50
23729;DHT22;12045;60.214;24.724;2023-05-14T00:43:45;13.30;87.90
23729;DHT22;12045;60.214;24.724;2023-05-14T00:46:13;13.30;88.00
23729;DHT22;12045;60.214;24.724;2023-05-14T00:48:41;13.30;88.20
23729;DHT22;12045;60.214;24.724;2023-05-14T00:51:08;13.30;88.50
23729;DHT22;12045;60.214;24.724;2023-05-14T00:53:36;14.10;89.30
23729;DHT22;12045;60.214;24.724;2023-05-14T00:56:04;13.20;88.60
23729;DHT22;12045;60.214;24.724;2023-05-14T00:58:31;13.20;89.60
23729;DHT22;12045;60.214;24.724;2023-05-14T01:00:59;12.80;88.80
23729;DHT22;12045;60.214;24.724;2023-05-14T01:03:27;13.20;89.20
23729;DHT22;12045;60.214;24.724;2023-05-14T01:06:04;13.30;89.20
23729;DHT22;12045;60.214;24.724;2023-05-14T01:08:49;13.20;89.20
23729;DHT22;12045;60.214;24.724;2023-05-14T01:14:31;13.10;90.10
23729;DHT22;12045;60.214;24.724;2023-05-14T01:17:02;13.10;90.20
23729;DHT22;12045;60.214;24.724;2023-05-14T01:22:07;13.10;90.20
23729;DHT22;12045;60.214;24.724;2023-05-14T01:24:34;13.00;90.30
23729;DHT22;12045;60.214;24.724;2023-05-14T01:32:40;12.90;90.70
23729;DHT22;12045;60.214;24.724;2023-05-14T01:35:09;12.90;91.20
23729;DHT22;12045;60.214;24.724;2023-05-14T01:37:37;12.90;91.10
23729;DHT22;12045;60.214;24.724;2023-05-14T01:40:06;12.80;91.20
23729;DHT22;12045;60.214;24.724;2023-05-14T01:42:34;12.80;91.50
23729;DHT22;12045;60.214;24.724;2023-05-14T01:45:03;12.70;91.60
23729;DHT22;12045;60.214;24.724;2023-05-14T01:47:31;12.40;91.70
23729;DHT22;12045;60.214;24.724;2023-05-14T01:49:58;12.70;91.90
23729;DHT22;12045;60.214;24.724;2023-05-14T01:52:26;12.80;92.00
23729;DHT22;12045;60.214;24.724;2023-05-14T01:54:53;12.80;92.10
23729;DHT22;12045;60.214;24.724;2023-05-14T01:57:21;12.80;92.10
23729;DHT22;12045;60.214;24.724;2023-05-14T01:59:48;12.50;92.00
23729;DHT22;12045;60.214;24.724;2023-05-14T02:02:16;12.80;92.20
23729;DHT22;12045;60.214;24.724;2023-05-14T02:04:43;12.80;92.40
23729;DHT22;12045;60.214;24.724;2023-05-14T02:07:11;13.10;92.60
23729;DHT22;12045;60.214;24.724;2023-05-14T02:09:38;12.80;92.50
23729;DHT22;12045;60.214;24.724;2023-05-14T02:12:07;12.90;92.50
23729;DHT22;12045;60.214;24.724;2023-05-14T02:14:35;13.00;92.40
23729;DHT22;12045;60.214;24.724;2023-05-14T02:17:03;13.20;92.40
23729;DHT22;12045;60.214;24.724;2023-05-14T02:19:31;13.70;92.20
23729;DHT22;12045;60.214;24.724;2023-05-14T02:21:59;13.30;91.90
23729;DHT22;12045;60.214;24.724;2023-05-14T02:24:27;13.30;92.00
23729;DHT22;12045;60.214;24.724;2023-05-14T02:26:55;13.30;92.10
23729;DHT22;12045;60.214;24.724;2023-05-14T02:29:22;13.20;92.20
23729;DHT22;12045;60.214;24.724;2023-05-14T02:31:49;13.20;92.40
23729;DHT22;12045;60.214;24.724;2023-05-14T02:34:17;13.30;92.30
23729;DHT22;12045;60.214;24.724;2023-05-14T02:36:44;13.30;92.10
23729;DHT22;12045;60.214;24.724;2023-05-14T02:39:12;13.10;92.50
23729;DHT22;12045;60.214;24.724;2023-05-14T02:41:39;13.00;92.90
23729;DHT22;12045;60.214;24.724;2023-05-14T02:44:07;12.90;93.30
23729;DHT22;12045;60.214;24.724;2023-05-14T02:46:34;13.50;93.60
23729;DHT22;12045;60.214;24.724;2023-05-14T02:49:02;13.10;93.10
23729;DHT22;12045;60.214;24.724;2023-05-14T02:51:29;13.10;92.70
23729;DHT22;12045;60.214;24.724;2023-05-14T02:53:57;13.60;93.10
23729;DHT22;12045;60.214;24.724;2023-05-14T02:56:24;12.90;93.20
23729;DHT22;12045;60.214;24.724;2023-05-14T02:58:52;12.80;93.50
23729;DHT22;12045;60.214;24.724;2023-05-14T03:01:20;12.80;93.70
23729;DHT22;12045;60.214;24.724;2023-05-14T03:03:48;12.80;93.80
23729;DHT22;12045;60.214;24.724;2023-05-14T03:06:16;12.90;93.70
23729;DHT22;12045;60.214;24.724;2023-05-14T03:08:43;12.90;93.80
23729;DHT22;12045;60.214;24.724;2023-05-14T03:11:11;12.80;93.90
23729;DHT22;12045;60.214;24.724;2023-05-14T03:13:39;12.70;94.10
23729;DHT22;12045;60.214;24.724;2023-05-14T03:16:07;12.70;94.30
23729;DHT22;12045;60.214;24.724;2023-05-14T03:18:34;12.80;93.90
23729;DHT22;12045;60.214;24.724;2023-05-14T03:21:03;13.40;94.40
23729;DHT22;12045;60.214;24.724;2023-05-14T03:23:30;12.50;94.30
23729;DHT22;12045;60.214;24.724;2023-05-14T03:26:01;12.70;94.30
23729;DHT22;12045;60.214;24.724;2023-05-14T03:28:28;12.70;94.50
23729;DHT22;12045;60.214;24.724;2023-05-14T03:30:56;12.70;94.40
23729;DHT22;12045;60.214;24.724;2023-05-14T03:33:23;12.70;94.40
23729;DHT22;12045;60.214;24.724;2023-05-14T03:35:51;12.80;94.30
23729;DHT22;12045;60.214;24.724;2023-05-14T03:38:18;12.90;94.10
23729;DHT22;12045;60.214;24.724;2023-05-14T03:40:45;13.00;93.90
23729;DHT22;12045;60.214;24.724;2023-05-14T03:43:13;13.10;93.90
23729;DHT22;12045;60.214;24.724;2023-05-14T03:45:41;13.10;93.90
23729;DHT22;12045;60.214;24.724;2023-05-14T03:48:09;13.40;93.90
23729;DHT22;12045;60.214;24.724;2023-05-14T03:50:36;13.50;93.80
23729;DHT22;12045;60.214;24.724;2023-05-14T03:53:03;13.60;93.50
23729;DHT22;12045;60.214;24.724;2023-05-14T03:55:31;13.50;93.30
23729;DHT22;12045;60.214;24.724;2023-05-14T03:57:59;13.10;93.60
23729;DHT22;12045;60.214;24.724;2023-05-14T04:00:27;13.20;94.00
23729;DHT22;12045;60.214;24.724;2023-05-14T04:02:54;13.10;94.30
23729;DHT22;12045;60.214;24.724;2023-05-14T04:05:22;13.10;94.60
23729;DHT22;12045;60.214;24.724;2023-05-14T04:07:49;13.00;94.70
23729;DHT22;12045;60.214;24.724;2023-05-14T04:10:18;13.10;94.80
23729;DHT22;12045;60.214;24.724;2023-05-14T04:12:46;13.20;94.50
23729;DHT22;12045;60.214;24.724;2023-05-14T04:15:13;13.20;94.70
23729;DHT22;12045;60.214;24.724;2023-05-14T04:17:41;13.20;94.70
23729;DHT22;12045;60.214;24.724;2023-05-14T04:20:09;13.20;94.70
23729;DHT22;12045;60.214;24.724;2023-05-14T04:22:36;13.20;94.90
23729;DHT22;12045;60.214;24.724;2023-05-14T04:25:04;13.10;94.80
23729;DHT22;12045;60.214;24.724;2023-05-14T04:27:32;13.00;95.10
23729;DHT22;12045;60.214;24.724;2023-05-14T04:30:00;12.90;95.60
23729;DHT22;12045;60.214;24.724;2023-05-14T04:32:27;12.90;95.70
23729;DHT22;12045;60.214;24.724;2023-05-14T04:34:56;12.90;95.60
23729;DHT22;12045;60.214;24.724;2023-05-14T04:37:23;13.70;96.20
23729;DHT22;12045;60.214;24.724;2023-05-14T04:39:52;12.90;96.00
23729;DHT22;12045;60.214;24.724;2023-05-14T04:42:19;13.00;96.00
23729;DHT22;12045;60.214;24.724;2023-05-14T04:44:47;13.20;95.90
23729;DHT22;12045;60.214;24.724;2023-05-14T04:47:15;13.30;95.40
23729;DHT22;12045;60.214;24.724;2023-05-14T04:49:43;13.30;95.80
23729;DHT22;12045;60.214;24.724;2023-05-14T04:52:10;13.40;95.50
23729;DHT22;12045;60.214;24.724;2023-05-14T04:54:37;13.50;95.10
23729;DHT22;12045;60.214;24.724;2023-05-14T04:57:06;13.50;95.20
23729;DHT22;12045;60.214;24.724;2023-05-14T04:59:33;13.50;95.30
23729;DHT22;12045;60.214;24.724;2023-05-14T05:02:01;13.60;95.10
23729;DHT22;12045;60.214;24.724;2023-05-14T05:04:28;13.60;94.70
23729;DHT22;12045;60.214;24.724;2023-05-14T05:06:55;12.90;94.80
23729;DHT22;12045;60.214;24.724;2023-05-14T05:09:23;14.20;95.00
23729;DHT22;12045;60.214;24.724;2023-05-14T05:11:51;13.90;94.60
23729;DHT22;12045;60.214;24.724;2023-05-14T05:14:18;14.10;94.60
23729;DHT22;12045;60.214;24.724;2023-05-14T05:16:45;14.10;94.20
23729;DHT22;12045;60.214;24.724;2023-05-14T05:19:13;14.20;94.20
23729;DHT22;12045;60.214;24.724;2023-05-14T05:21:41;14.30;94.40
23729;DHT22;12045;60.214;24.724;2023-05-14T05:24:09;14.50;94.00
23729;DHT22;12045;60.214;24.724;2023-05-14T05:26:36;14.60;93.60
23729;DHT22;12045;60.214;24.724;2023-05-14T05:29:04;14.60;93.60
23729;DHT22;12045;60.214;24.724;2023-05-14T05:31:32;14.70;93.30
23729;DHT22;12045;60.214;24.724;2023-05-14T05:33:59;14.80;93.10
23729;DHT22;12045;60.214;24.724;2023-05-14T05:36:27;14.90;92.60
23729;DHT22;12045;60.214;24.724;2023-05-14T05:38:54;15.00;92.30
23729;DHT22;12045;60.214;24.724;2023-05-14T05:41:22;15.10;92.60
23729;DHT22;12045;60.214;24.724;2023-05-14T05:43:49;15.30;92.00
23729;DHT22;12045;60.214;24.724;2023-05-14T05:46:17;15.30;90.80
23729;DHT22;12045;60.214;24.724;2023-05-14T05:48:46;15.40;90.60
23729;DHT22;12045;60.214;24.724;2023-05-14T05:51:13;15.60;90.30
23729;DHT22;12045;60.214;24.724;2023-05-14T05:53:41;15.70;89.40
23729;DHT22;12045;60.214;24.724;2023-05-14T05:56:08;15.80;88.00
23729;DHT22;12045;60.214;24.724;2023-05-14T05:58:36;16.10;87.00
23729;DHT22;12045;60.214;24.724;2023-05-14T06:01:03;15.80;86.90
23729;DHT22;12045;60.214;24.724;2023-05-14T06:03:31;15.80;86.20
23729;DHT22;12045;60.214;24.724;2023-05-14T06:05:58;15.90;86.40
23729;DHT22;12045;60.214;24.724;2023-05-14T06:08:26;16.10;85.70
23729;DHT22;12045;60.214;24.724;2023-05-14T06:10:53;15.90;86.00
23729;DHT22;12045;60.214;24.724;2023-05-14T06:13:21;16.40;83.20
23729;DHT22;12045;60.214;24.724;2023-05-14T06:15:48;16.40;83.20
23729;DHT22;12045;60.214;24.724;2023-05-14T06:18:15;15.90;82.40
23729;DHT22;12045;60.214;24.724;2023-05-14T06:20:43;16.50;81.40
23729;DHT22;12045;60.214;24.724;2023-05-14T06:23:11;16.60;80.90
23729;DHT22;12045;60.214;24.724;2023-05-14T06:25:38;17.20;80.20
23729;DHT22;12045;60.214;24.724;2023-05-14T06:28:06;16.90;79.20
23729;DHT22;12045;60.214;24.724;2023-05-14T06:30:33;16.90;78.90
23729;DHT22;12045;60.214;24.724;2023-05-14T06:33:01;17.00;77.40
23729;DHT22;12045;60.214;24.724;2023-05-14T06:35:29;17.10;76.50
23729;DHT22;12045;60.214;24.724;2023-05-14T06:37:56;17.10;76.60
23729;DHT22;12045;60.214;24.724;2023-05-14T06:40:23;17.30;75.60
23729;DHT22;12045;60.214;24.724;2023-05-14T06:42:51;17.40;75.20
23729;DHT22;12045;60.214;24.724;2023-05-14T06:45:19;17.50;74.00
23729;DHT22;12045;60.214;24.724;2023-05-14T06:47:46;17.40;73.30
23729;DHT22;12045;60.214;24.724;2023-05-14T06:50:14;17.70;72.80
23729;DHT22;12045;60.214;24.724;2023-05-14T06:52:41;17.70;72.00
23729;DHT22;12045;60.214;24.724;2023-05-14T06:55:12;17.90;71.60
23729;DHT22;12045;60.214;24.724;2023-05-14T06:57:39;18.00;71.90
23729;DHT22;12045;60.214;24.724;2023-05-14T07:00:07;18.10;71.40
23729;DHT22;12045;60.214;24.724;2023-05-14T07:02:35;18.30;71.70
23729;DHT22;12045;60.214;24.724;2023-05-14T07:05:02;18.50;70.00
23729;DHT22;12045;60.214;24.724;2023-05-14T07:07:30;18.60;69.70
23729;DHT22;12045;60.214;24.724;2023-05-14T07:09:57;18.70;68.90
23729;DHT22;12045;60.214;24.724;2023-05-14T07:12:25;18.70;69.00
23729;DHT22;12045;60.214;24.724;2023-05-14T07:14:53;18.70;67.90
23729;DHT22;12045;60.214;24.724;2023-05-14T07:17:23;18.60;67.20
23729;DHT22;12045;60.214;24.724;2023-05-14T07:19:51;18.50;67.80
23729;DHT22;12045;60.214;24.724;2023-05-14T07:22:18;18.60;67.70
23729;DHT22;12045;60.214;24.724;2023-05-14T07:24:45;18.70;67.70
23729;DHT22;12045;60.214;24.724;2023-05-14T07:27:13;18.80;66.80
23729;DHT22;12045;60.214;24.724;2023-05-14T07:29:41;18.70;66.40
23729;DHT22;12045;60.214;24.724;2023-05-14T07:32:08;18.80;67.20
23729;DHT22;12045;60.214;24.724;2023-05-14T07:34:36;19.10;66.50
23729;DHT22;12045;60.214;24.724;2023-05-14T07:37:03;19.20;66.00
23729;DHT22;12045;60.214;24.724;2023-05-14T07:39:31;19.30;66.20
23729;DHT22;12045;60.214;24.724;2023-05-14T07:41:59;19.40;66.00
23729;DHT22;12045;60.214;24.724;2023-05-14T07:44:27;19.60;65.90
23729;DHT22;12045;60.214;24.724;2023-05-14T07:46:54;19.90;65.40
23729;DHT22;12045;60.214;24.724;2023-05-14T07:49:22;19.70;64.40
23729;DHT22;12045;60.214;24.724;2023-05-14T07:51:49;19.80;64.20
23729;DHT22;12045;60.214;24.724;2023-05-14T07:54:17;19.70;65.00
23729;DHT22;12045;60.214;24.724;2023-05-14T07:56:45;19.90;64.50
23729;DHT22;12045;60.214;24.724;2023-05-14T07:59:13;20.00;64.80
23729;DHT22;12045;60.214;24.724;2023-05-14T08:01:40;19.90;64.90
23729;DHT22;12045;60.214;24.724;2023-05-14T08:04:08;20.00;64.10
23729;DHT22;12045;60.214;24.724;2023-05-14T08:06:38;20.00;64.00
23729;DHT22;12045;60.214;24.724;2023-05-14T08:09:05;20.10;65.10
23729;DHT22;12045;60.214;24.724;2023-05-14T08:11:33;20.40;64.90
23729;DHT22;12045;60.214;24.724;2023-05-14T08:14:00;20.50;63.40
23729;DHT22;12045;60.214;24.724;2023-05-14T08:16:28;20.30;63.40
23729;DHT22;12045;60.214;24.724;2023-05-14T08:18:55;20.30;63.80
23729;DHT22;12045;60.214;24.724;2023-05-14T08:21:23;20.40;63.20
23729;DHT22;12045;60.214;24.724;2023-05-14T08:23:50;20.60;63.60
23729;DHT22;12045;60.214;24.724;2023-05-14T08:26:18;20.80;62.30
23729;DHT22;12045;60.214;24.724;2023-05-14T08:28:46;20.70;62.90
23729;DHT22;12045;60.214;24.724;2023-05-14T08:31:13;20.80;62.60
23729;DHT22;12045;60.214;24.724;2023-05-14T08:33:41;20.80;62.30
23729;DHT22;12045;60.214;24.724;2023-05-14T08:36:08;20.60;62.90
23729;DHT22;12045;60.214;24.724;2023-05-14T08:38:36;20.50;63.60
23729;DHT22;12045;60.214;24.724;2023-05-14T08:41:04;20.60;62.70
23729;DHT22;12045;60.214;24.724;2023-05-14T08:43:51;20.50;62.50
23729;DHT22;12045;60.214;24.724;2023-05-14T08:46:23;20.50;62.60
23729;DHT22;12045;60.214;24.724;2023-05-14T08:48:56;20.50;63.40
23729;DHT22;12045;60.214;24.724;2023-05-14T08:51:26;20.90;62.40
23729;DHT22;12045;60.214;24.724;2023-05-14T08:53:54;21.20;61.80
23729;DHT22;12045;60.214;24.724;2023-05-14T08:56:24;21.30;61.60
23729;DHT22;12045;60.214;24.724;2023-05-14T08:58:52;21.30;61.20
23729;DHT22;12045;60.214;24.724;2023-05-14T09:01:20;21.20;60.90
23729;DHT22;12045;60.214;24.724;2023-05-14T09:03:48;21.00;61.70
23729;DHT22;12045;60.214;24.724;2023-05-14T09:06:17;21.10;60.40
23729;DHT22;12045;60.214;24.724;2023-05-14T09:08:45;21.10;60.70
23729;DHT22;12045;60.214;24.724;2023-05-14T09:11:13;21.50;60.80
23729;DHT22;12045;60.214;24.724;2023-05-14T09:13:40;21.70;60.00
23729;DHT22;12045;60.214;24.724;2023-05-14T09:16:08;21.80;59.20
23729;DHT22;12045;60.214;24.724;2023-05-14T09:18:35;21.60;58.00
23729;DHT22;12045;60.214;24.724;2023-05-14T09:21:03;21.40;59.60
23729;DHT22;12045;60.214;24.724;2023-05-14T09:23:31;21.70;59.10
23729;DHT22;12045;60.214;24.724;2023-05-14T09:26:04;21.90;57.80
23729;DHT22;12045;60.214;24.724;2023-05-14T09:28:32;22.00;57.30
23729;DHT22;12045;60.214;24.724;2023-05-14T09:31:00;22.00;56.90
23729;DHT22;12045;60.214;24.724;2023-05-14T09:33:28;21.80;57.80
23729;DHT22;12045;60.214;24.724;2023-05-14T09:35:59;21.80;57.30
23729;DHT22;12045;60.214;24.724;2023-05-14T09:38:31;22.00;56.60
23729;DHT22;12045;60.214;24.724;2023-05-14T09:40:59;21.80;57.10
23729;DHT22;12045;60.214;24.724;2023-05-14T09:43:27;21.90;57.60
23729;DHT22;12045;60.214;24.724;2023-05-14T09:45:54;22.10;57.40
23729;DHT22;12045;60.214;24.724;2023-05-14T09:48:22;22.10;56.30
23729;DHT22;12045;60.214;24.724;2023-05-14T09:50:50;22.20;56.40
23729;DHT22;12045;60.214;24.724;2023-05-14T09:53:18;22.40;57.00
23729;DHT22;12045;60.214;24.724;2023-05-14T09:55:46;22.70;56.20
23729;DHT22;12045;60.214;24.724;2023-05-14T09:58:13;23.00;54.70
23729;DHT22;12045;60.214;24.724;2023-05-14T10:00:45;23.30;54.40
23729;DHT22;12045;60.214;24.724;2023-05-14T10:03:14;23.30;54.20
23729;DHT22;12045;60.214;24.724;2023-05-14T10:05:48;23.50;54.50
23729;DHT22;12045;60.214;24.724;2023-05-14T10:08:23;23.70;53.60
23729;DHT22;12045;60.214;24.724;2023-05-14T10:10:53;23.90;52.60
23729;DHT22;12045;60.214;24.724;2023-05-14T10:13:24;23.70;52.70
23729;DHT22;12045;60.214;24.724;2023-05-14T10:18:22;23.30;54.10
23729;DHT22;12045;60.214;24.724;2023-05-14T10:21:05;23.80;53.40
23729;DHT22;12045;60.214;24.724;2023-05-14T10:23:33;24.00;51.20
23729;DHT22;12045;60.214;24.724;2023-05-14T10:26:04;24.20;51.00
23729;DHT22;12045;60.214;24.724;2023-05-14T10:28:32;24.50;49.90
23729;DHT22;12045;60.214;24.724;2023-05-14T10:31:00;24.70;49.60
23729;DHT22;12045;60.214;24.724;2023-05-14T10:33:27;24.60;49.40
23729;DHT22;12045;60.214;24.724;2023-05-14T10:36:06;24.60;50.00
23729;DHT22;12045;60.214;24.724;2023-05-14T10:38:37;24.40;49.70
23729;DHT22;12045;60.214;24.724;2023-05-14T10:41:12;24.00;50.40
23729;DHT22;12045;60.214;24.724;2023-05-14T10:43:41;23.80;50.20
23729;DHT22;12045;60.214;24.724;2023-05-14T10:46:10;23.90;51.20
23729;DHT22;12045;60.214;24.724;2023-05-14T10:48:41;24.20;49.90
23729;DHT22;12045;60.214;24.724;2023-05-14T10:51:10;24.50;49.90
23729;DHT22;12045;60.214;24.724;2023-05-14T10:53:39;24.80;49.00
23729;DHT22;12045;60.214;24.724;2023-05-14T10:56:09;24.20;49.00
23729;DHT22;12045;60.214;24.724;2023-05-14T10:58:38;23.60;50.20
23729;DHT22;12045;60.214;24.724;2023-05-14T11:01:07;23.50;51.40
23729;DHT22;12045;60.214;24.724;2023-05-14T11:03:40;23.90;50.70
23729;DHT22;12045;60.214;24.724;2023-05-14T11:06:10;24.30;49.80
23729;DHT22;12045;60.214;24.724;2023-05-14T11:08:38;24.30;49.90
23729;DHT22;12045;60.214;24.724;2023-05-14T11:11:07;24.10;50.20
23729;DHT22;12045;60.214;24.724;2023-05-14T11:13:35;24.50;50.90
23729;DHT22;12045;60.214;24.724;2023-05-14T11:16:03;25.10;49.50
23729;DHT22;12045;60.214;24.724;2023-05-14T11:18:52;25.00;48.70
23729;DHT22;12045;60.214;24.724;2023-05-14T11:21:26;24.80;49.30
23729;DHT22;12045;60.214;24.724;2023-05-14T11:23:55;25.00;49.70
23729;DHT22;12045;60.214;24.724;2023-05-14T11:26:22;25.40;49.00
23729;DHT22;12045;60.214;24.724;2023-05-14T11:28:50;25.90;48.60
23729;DHT22;12045;60.214;24.724;2023-05-14T11:31:18;26.10;47.80
23729;DHT22;12045;60.214;24.724;2023-05-14T11:33:45;26.20;48.20
23729;DHT22;12045;60.214;24.724;2023-05-14T11:36:13;26.70;47.60
23729;DHT22;12045;60.214;24.724;2023-05-14T11:43:47;26.80;49.10
23729;DHT22;12045;60.214;24.724;2023-05-14T11:46:16;26.90;53.20
23729;DHT22;12045;60.214;24.724;2023-05-14T11:48:45;27.00;58.90
23729;DHT22;12045;60.214;24.724;2023-05-14T11:51:12;26.30;62.20
23729;DHT22;12045;60.214;24.724;2023-05-14T11:53:39;25.50;65.60
23729;DHT22;12045;60.214;24.724;2023-05-14T11:56:07;25.80;63.60
23729;DHT22;12045;60.214;24.724;2023-05-14T11:58:36;26.00;61.80
23729;DHT22;12045;60.214;24.724;2023-05-14T12:01:03;26.00;60.80
23729;DHT22;12045;60.214;24.724;2023-05-14T12:03:31;26.70;61.50
23729;DHT22;12045;60.214;24.724;2023-05-14T12:06:00;26.30;59.60
23729;DHT22;12045;60.214;24.724;2023-05-14T12:08:29;26.50;61.60
23729;DHT22;12045;60.214;24.724;2023-05-14T12:10:59;26.20;61.20
23729;DHT22;12045;60.214;24.724;2023-05-14T12:13:28;26.20;61.60
23729;DHT22;12045;60.214;24.724;2023-05-14T12:15:59;25.90;61.80
23729;DHT22;12045;60.214;24.724;2023-05-14T12:18:30;26.10;61.30
23729;DHT22;12045;60.214;24.724;2023-05-14T12:21:04;26.20;61.60
23729;DHT22;12045;60.214;24.724;2023-05-14T12:23:34;26.80;61.60
23729;DHT22;12045;60.214;24.724;2023-05-14T12:26:05;26.50;61.40
23729;DHT22;12045;60.214;24.724;2023-05-14T12:28:33;26.30;61.30
23729;DHT22;12045;60.214;24.724;2023-05-14T12:31:04;26.20;62.60
23729;DHT22;12045;60.214;24.724;2023-05-14T12:33:32;25.90;61.60
23729;DHT22;12045;60.214;24.724;2023-05-14T12:35:59;25.50;61.40
23729;DHT22;12045;60.214;24.724;2023-05-14T12:38:48;25.80;62.40
23729;DHT22;12045;60.214;24.724;2023-05-14T12:41:16;26.20;63.10
23729;DHT22;12045;60.214;24.724;2023-05-14T12:43:46;25.80;61.50
23729;DHT22;12045;60.214;24.724;2023-05-14T12:46:14;26.30;62.10
23729;DHT22;12045;60.214;24.724;2023-05-14T12:48:42;25.90;61.50
23729;DHT22;12045;60.214;24.724;2023-05-14T12:51:10;25.70;61.30
23729;DHT22;12045;60.214;24.724;2023-05-14T12:53:37;25.80;63.10
23729;DHT22;12045;60.214;24.724;2023-05-14T12:56:05;26.40;63.30
23729;DHT22;12045;60.214;24.724;2023-05-14T12:58:32;26.20;62.00
23729;DHT22;12045;60.214;24.724;2023-05-14T13:01:00;26.10;62.00
23729;DHT22;12045;60.214;24.724;2023-05-14T13:03:28;26.10;62.00
23729;DHT22;12045;60.214;24.724;2023-05-14T13:05:55;25.60;61.90
23729;DHT22;12045;60.214;24.724;2023-05-14T13:08:24;25.70;65.90
23729;DHT22;12045;60.214;24.724;2023-05-14T13:10:53;25.00;66.50
23729;DHT22;12045;60.214;24.724;2023-05-14T13:13:21;25.10;67.10
23729;DHT22;12045;60.214;24.724;2023-05-14T13:15:48;25.30;68.40
23729;DHT22;12045;60.214;24.724;2023-05-14T13:18:16;25.10;68.40
23729;DHT22;12045;60.214;24.724;2023-05-14T13:20:45;25.20;68.00
23729;DHT22;12045;60.214;24.724;2023-05-14T13:23:14;24.80;70.20
23729;DHT22;12045;60.214;24.724;2023-05-14T13:25:41;25.10;70.40
23729;DHT22;12045;60.214;24.724;2023-05-14T13:28:09;25.00;71.60
23729;DHT22;12045;60.214;24.724;2023-05-14T13:30:36;25.00;75.10
23729;DHT22;12045;60.214;24.724;2023-05-14T13:33:04;25.00;72.90
23729;DHT22;12045;60.214;24.724;2023-05-14T13:35:32;24.70;71.80
23729;DHT22;12045;60.214;24.724;2023-05-14T13:38:01;24.50;71.90
23729;DHT22;12045;60.214;24.724;2023-05-14T13:40:29;24.70;74.10
23729;DHT22;12045;60.214;24.724;2023-05-14T13:42:56;24.30;75.00
23729;DHT22;12045;60.214;24.724;2023-05-14T13:45:24;24.30;75.80
23729;DHT22;12045;60.214;24.724;2023-05-14T13:47:51;24.50;77.20
23729;DHT22;12045;60.214;24.724;2023-05-14T13:50:19;23.80;77.80
23729;DHT22;12045;60.214;24.724;2023-05-14T13:52:48;23.50;76.50
23729;DHT22;12045;60.214;24.724;2023-05-14T13:55:15;23.50;78.00
23729;DHT22;12045;60.214;24.724;2023-05-14T13:57:43;22.90;79.30
23729;DHT22;12045;60.214;24.724;2023-05-14T14:00:14;23.20;76.70
23729;DHT22;12045;60.214;24.724;2023-05-14T14:02:41;23.20;79.80
23729;DHT22;12045;60.214;24.724;2023-05-14T14:05:09;23.30;78.40
23729;DHT22;12045;60.214;24.724;2023-05-14T14:07:36;23.10;78.20
23729;DHT22;12045;60.214;24.724;2023-05-14T14:10:06;22.90;77.10
23729;DHT22;12045;60.214;24.724;2023-05-14T14:12:34;22.80;78.40
23729;DHT22;12045;60.214;24.724;2023-05-14T14:15:01;22.90;77.70
23729;DHT22;12045;60.214;24.724;2023-05-14T14:17:30;23.10;81.10
23729;DHT22;12045;60.214;24.724;2023-05-14T14:19:57;23.00;80.10
23729;DHT22;12045;60.214;24.724;2023-05-14T14:22:25;22.90;79.40
23729;DHT22;12045;60.214;24.724;2023-05-14T14:24:55;22.60;75.80
23729;DHT22;12045;60.214;24.724;2023-05-14T14:27:22;22.70;79.60
23729;DHT22;12045;60.214;24.724;2023-05-14T14:29:50;23.00;78.60
23729;DHT22;12045;60.214;24.724;2023-05-14T14:32:17;22.50;79.90
23729;DHT22;12045;60.214;24.724;2023-05-14T14:34:45;22.70;74.90
23729;DHT22;12045;60.214;24.724;2023-05-14T14:37:12;22.50;76.50
23729;DHT22;12045;60.214;24.724;2023-05-14T14:39:40;22.60;79.70
23729;DHT22;12045;60.214;24.724;2023-05-14T14:42:07;22.40;78.40
23729;DHT22;12045;60.214;24.724;2023-05-14T14:44:34;22.70;77.90
23729;DHT22;12045;60.214;24.724;2023-05-14T14:47:02;22.70;79.10
23729;DHT22;12045;60.214;24.724;2023-05-14T14:49:29;22.70;76.60
23729;DHT22;12045;60.214;24.724;2023-05-14T14:51:58;22.80;82.00
23729;DHT22;12045;60.214;24.724;2023-05-14T14:54:25;22.80;74.40
23729;DHT22;12045;60.214;24.724;2023-05-14T14:56:53;22.90;76.10
23729;DHT22;12045;60.214;24.724;2023-05-14T14:59:20;22.90;75.80
23729;DHT22;12045;60.214;24.724;2023-05-14T15:01:47;22.80;76.40
23729;DHT22;12045;60.214;24.724;2023-05-14T15:04:17;22.70;75.80
23729;DHT22;12045;60.214;24.724;2023-05-14T15:06:45;22.90;77.70
23729;DHT22;12045;60.214;24.724;2023-05-14T15:09:12;23.00;79.70
23729;DHT22;12045;60.214;24.724;2023-05-14T15:11:40;23.30;79.50
23729;DHT22;12045;60.214;24.724;2023-05-14T15:14:07;23.80;77.60
23729;DHT22;12045;60.214;24.724;2023-05-14T15:16:35;23.30;76.20
23729;DHT22;12045;60.214;24.724;2023-05-14T15:19:02;23.30;77.30
23729;DHT22;12045;60.214;24.724;2023-05-14T15:21:30;23.30;77.20
23729;DHT22;12045;60.214;24.724;2023-05-14T15:23:58;22.90;75.70
23729;DHT22;12045;60.214;24.724;2023-05-14T15:26:25;23.50;76.10
23729;DHT22;12045;60.214;24.724;2023-05-14T15:28:53;23.60;76.50
23729;DHT22;12045;60.214;24.724;2023-05-14T15:31:20;23.60;75.90
23729;DHT22;12045;60.214;24.724;2023-05-14T15:33:48;23.10;72.90
23729;DHT22;12045;60.214;24.724;2023-05-14T15:36:15;23.80;74.00
23729;DHT22;12045;60.214;24.724;2023-05-14T15:38:43;23.80;74.00
23729;DHT22;12045;60.214;24.724;2023-05-14T15:41:10;23.60;74.20